Time;durP1;ratioP1;P1;durP2;ratioP2;P2;SDS_P1;SDS_P2;PMS_P1;PMS_P2;Temp;Humidity;BMP_temperature;BMP_pressure;BME280_temperature;BME280_humidity;BME280_pressure;Samples;Min_cycle;Max_cycle;Signal;HPM_P1;HPM_P2
2023/06/14 00:01:02;;;;;;;17.52;8.40;;;20.30;99.90;;;;;;5070703;28;20044;-65
2023/06/14 00:03:29;;;;;;;16.73;8.68;;;20.20;99.90;;;;;;5070663;28;20046;-66
2023/06/14 00:05:54;;;;;;;15.38;7.30;;;20.10;99.90;;;;;;5070793;28;20032;-66
2023/06/14 00:08:22;;;;;;;14.50;8.05;;;20.00;99.90;;;;;;5070427;28;20533;-66
2023/06/14 00:10:48;;;;;;;13.90;7.80;;;19.90;99.90;;;;;;5070271;28;20466;-66
2023/06/14 00:13:14;;;;;;;15.93;8.02;;;19.90;99.90;;;;;;5070647;28;20025;-67
2023/06/14 00:15:40;;;;;;;15.52;7.97;;;19.90;99.90;;;;;;5073533;28;20036;-66
2023/06/14 00:18:07;;;;;;;15.25;8.40;;;19.90;99.90;;;;;;5074609;28;20104;-66
2023/06/14 00:20:33;;;;;;;16.83;8.27;;;19.80;99.90;;;;;;5074179;28;20024;-66
2023/06/14 00:23:00;;;;;;;15.85;8.20;;;19.80;99.90;;;;;;5074202;28;20021;-67
2023/06/14 00:25:26;;;;;;;14.57;7.93;;;19.80;99.90;;;;;;5074316;28;20044;-66
2023/06/14 00:27:52;;;;;;;18.35;8.57;;;19.70;99.90;;;;;;5074199;28;20089;-66
2023/06/14 00:30:18;;;;;;;18.88;8.95;;;19.70;99.90;;;;;;5074008;28;20017;-66
2023/06/14 00:32:45;;;;;;;16.45;7.85;;;19.70;99.90;;;;;;5074018;28;20032;-66
2023/06/14 00:35:11;;;;;;;15.07;8.25;;;19.70;99.90;;;;;;5073629;28;20438;-66
2023/06/14 00:37:37;;;;;;;16.92;8.50;;;19.70;99.90;;;;;;5073026;28;20039;-66
2023/06/14 00:40:04;;;;;;;18.77;8.68;;;19.60;99.90;;;;;;5073454;28;20021;-67
2023/06/14 00:42:30;;;;;;;16.70;8.05;;;19.60;99.90;;;;;;5073095;28;20032;-66
2023/06/14 00:44:56;;;;;;;18.92;8.63;;;19.80;99.90;;;;;;5074465;28;20392;-66
2023/06/14 00:47:22;;;;;;;16.83;8.00;;;19.80;99.90;;;;;;5073778;28;20041;-66
2023/06/14 00:49:50;;;;;;;17.02;7.80;;;20.00;99.90;;;;;;5073931;28;20032;-66
2023/06/14 00:52:17;;;;;;;17.10;7.35;;;20.20;99.90;;;;;;5073705;28;20032;-66
2023/06/14 00:54:43;;;;;;;19.42;7.00;;;20.30;99.90;;;;;;5073435;28;20104;-66
2023/06/14 00:57:12;;;;;;;16.55;8.07;;;20.50;99.90;;;;;;5073881;28;20037;-67
2023/06/14 00:59:42;;;;;;;16.23;6.80;;;20.60;99.90;;;;;;5073655;28;20488;-67
2023/06/14 01:02:08;;;;;;;19.58;7.82;;;20.70;99.90;;;;;;5073467;28;20017;-67
2023/06/14 01:04:34;;;;;;;14.90;7.28;;;20.70;99.90;;;;;;5073548;28;20028;-67
2023/06/14 01:07:13;;;;;;;17.15;7.60;;;20.70;99.90;;;;;;5073148;28;20072;-67
2023/06/14 01:09:58;;;;;;;14.63;6.47;;;20.70;99.90;;;;;;5073010;28;20392;-66
2023/06/14 01:12:38;;;;;;;20.73;7.88;;;20.70;99.90;;;;;;5073462;28;20040;-66
2023/06/14 01:15:05;;;;;;;15.68;7.47;;;20.70;99.90;;;;;;5073500;28;20401;-66
2023/06/14 01:17:31;;;;;;;15.15;7.20;;;20.60;99.90;;;;;;5073911;28;20029;-66
2023/06/14 01:20:02;;;;;;;18.25;7.20;;;20.50;99.90;;;;;;5073525;28;20485;-66
2023/06/14 01:22:28;;;;;;;17.67;7.53;;;20.40;99.90;;;;;;5073232;28;20035;-66
2023/06/14 01:24:57;;;;;;;17.92;7.18;;;20.30;99.90;;;;;;5073814;28;20504;-67
2023/06/14 01:27:28;;;;;;;15.18;6.50;;;20.30;99.90;;;;;;5072286;28;20083;-66
2023/06/14 01:29:56;;;;;;;18.75;7.60;;;20.30;99.90;;;;;;5073538;28;20016;-66
2023/06/14 01:32:26;;;;;;;14.60;6.88;;;20.30;99.90;;;;;;5073308;28;20099;-66
2023/06/14 01:34:52;;;;;;;15.50;6.50;;;20.30;99.90;;;;;;5073466;28;20069;-66
2023/06/14 01:37:19;;;;;;;14.80;6.88;;;20.30;99.90;;;;;;5073036;28;20036;-66
2023/06/14 01:39:45;;;;;;;17.80;7.32;;;20.20;99.90;;;;;;5073163;28;20036;-66
2023/06/14 01:42:12;;;;;;;15.15;7.07;;;20.20;99.90;;;;;;5073113;28;20032;-66
2023/06/14 01:44:39;;;;;;;14.82;6.40;;;20.20;99.90;;;;;;5073152;28;20123;-67
2023/06/14 01:47:05;;;;;;;20.17;7.22;;;20.10;99.90;;;;;;5073108;28;20056;-67
2023/06/14 01:49:38;;;;;;;18.88;7.13;;;20.10;99.90;;;;;;5073333;28;20558;-67
2023/06/14 01:52:04;;;;;;;16.77;7.28;;;20.10;99.90;;;;;;5073073;28;20024;-67
2023/06/14 01:54:30;;;;;;;16.63;7.25;;;20.10;99.90;;;;;;5073068;28;20078;-66
2023/06/14 01:56:56;;;;;;;18.05;6.72;;;20.10;99.90;;;;;;5072926;28;20116;-66
2023/06/14 01:59:22;;;;;;;15.13;7.22;;;20.20;99.90;;;;;;5072883;28;20101;-66
2023/06/14 02:01:48;;;;;;;18.00;6.70;;;20.30;99.90;;;;;;5072648;28;20081;-67
2023/06/14 02:04:13;;;;;;;16.55;7.43;;;20.50;99.90;;;;;;5072959;28;20024;-67
2023/06/14 02:06:39;;;;;;;15.23;7.07;;;20.50;99.90;;;;;;5072239;28;20041;-66
2023/06/14 02:09:04;;;;;;;14.75;6.82;;;20.50;99.90;;;;;;5072706;28;20097;-66
2023/06/14 02:11:30;;;;;;;18.95;6.75;;;20.60;99.90;;;;;;5072802;28;20032;-66
2023/06/14 02:13:56;;;;;;;15.73;6.72;;;20.70;99.90;;;;;;5072679;28;20024;-66
2023/06/14 02:16:22;;;;;;;17.52;6.80;;;20.70;99.90;;;;;;5072849;28;20027;-66
2023/06/14 02:18:48;;;;;;;17.55;7.03;;;20.70;99.90;;;;;;5072470;28;20021;-66
2023/06/14 02:21:14;;;;;;;14.70;6.35;;;20.70;99.90;;;;;;5072004;28;20044;-66
2023/06/14 02:23:40;;;;;;;14.63;6.70;;;20.80;99.90;;;;;;5070938;28;20447;-66
2023/06/14 02:26:06;;;;;;;17.08;6.65;;;20.80;99.90;;;;;;5072353;28;20024;-67
2023/06/14 02:28:31;;;;;;;19.98;7.80;;;20.70;99.90;;;;;;5072137;28;20036;-66
2023/06/14 02:30:57;;;;;;;20.48;7.20;;;20.60;99.90;;;;;;5072442;28;20024;-66
2023/06/14 02:33:23;;;;;;;18.58;6.88;;;20.50;99.90;;;;;;5072263;28;20400;-66
2023/06/14 02:35:48;;;;;;;16.15;6.80;;;20.60;99.90;;;;;;5072123;28;20447;-67
2023/06/14 02:38:14;;;;;;;18.25;8.07;;;20.50;99.90;;;;;;5071910;28;20499;-66
2023/06/14 02:40:42;;;;;;;15.38;7.40;;;20.50;99.90;;;;;;5072320;28;20514;-66
2023/06/14 02:43:08;;;;;;;16.38;7.35;;;20.50;99.90;;;;;;5071928;28;20021;-66
2023/06/14 02:45:34;;;;;;;17.60;7.32;;;20.40;99.90;;;;;;5071950;28;20029;-66
2023/06/14 02:48:00;;;;;;;15.73;7.18;;;20.50;99.90;;;;;;5071794;28;20548;-67
2023/06/14 02:50:25;;;;;;;14.07;6.97;;;20.40;99.90;;;;;;5071658;28;20059;-67
2023/06/14 02:52:52;;;;;;;19.35;7.93;;;20.40;99.90;;;;;;5071785;28;20511;-66
2023/06/14 02:55:18;;;;;;;18.33;8.20;;;20.40;99.90;;;;;;5071902;28;20051;-66
2023/06/14 02:57:43;;;;;;;15.65;7.72;;;20.40;99.90;;;;;;5072000;28;20462;-67
2023/06/14 03:00:12;;;;;;;18.17;7.93;;;20.40;99.90;;;;;;5071290;28;20500;-66
2023/06/14 03:02:38;;;;;;;20.45;8.40;;;20.40;99.90;;;;;;5071796;28;20090;-66
2023/06/14 03:05:06;;;;;;;19.75;9.20;;;20.40;99.90;;;;;;5071293;28;20028;-66
2023/06/14 03:07:32;;;;;;;17.42;8.02;;;20.40;99.90;;;;;;5071608;28;20093;-66
2023/06/14 03:09:58;;;;;;;18.02;8.50;;;20.40;99.90;;;;;;5071462;28;20031;-67
2023/06/14 03:12:23;;;;;;;18.88;8.05;;;20.60;99.90;;;;;;5071742;28;20041;-66
2023/06/14 03:14:50;;;;;;;22.83;8.57;;;20.70;99.90;;;;;;5071699;28;20024;-66
2023/06/14 03:17:17;;;;;;;22.40;8.57;;;20.80;99.90;;;;;;5071334;28;20033;-67
2023/06/14 03:19:43;;;;;;;18.75;8.82;;;20.90;99.90;;;;;;5071482;28;20028;-66
2023/06/14 03:22:11;;;;;;;21.05;8.50;;;20.80;99.90;;;;;;5070269;28;20043;-67
2023/06/14 03:24:37;;;;;;;18.48;8.20;;;20.80;99.90;;;;;;5071276;28;20055;-66
2023/06/14 03:27:03;;;;;;;18.02;8.60;;;20.80;99.90;;;;;;5071533;28;20040;-66
2023/06/14 03:29:29;;;;;;;18.80;8.30;;;20.80;99.90;;;;;;5071610;28;20511;-66
2023/06/14 03:32:00;;;;;;;18.95;8.93;;;20.80;99.90;;;;;;5071038;28;20032;-66
2023/06/14 03:34:26;;;;;;;19.30;8.90;;;20.90;99.90;;;;;;5070851;28;20027;-66
2023/06/14 03:36:52;;;;;;;17.92;8.95;;;20.90;99.90;;;;;;5071511;28;20029;-66
2023/06/14 03:39:17;;;;;;;19.25;8.85;;;20.90;99.90;;;;;;5071372;28;20071;-67
2023/06/14 03:41:43;;;;;;;21.88;9.80;;;20.80;99.90;;;;;;5070817;28;20082;-66
2023/06/14 03:44:09;;;;;;;21.77;9.35;;;20.80;99.90;;;;;;5071396;28;20059;-66
2023/06/14 03:46:34;;;;;;;20.10;9.07;;;20.70;99.90;;;;;;5071035;28;20075;-66
2023/06/14 03:49:00;;;;;;;20.75;9.63;;;20.60;99.90;;;;;;5070325;28;20067;-66
2023/06/14 03:51:26;;;;;;;23.08;9.82;;;20.50;99.90;;;;;;5071488;28;20056;-67
2023/06/14 03:53:51;;;;;;;20.73;10.02;;;20.50;99.90;;;;;;5070968;28;20119;-66
2023/06/14 03:56:17;;;;;;;22.40;9.70;;;20.50;99.90;;;;;;5070955;28;20025;-66
2023/06/14 03:58:43;;;;;;;19.55;9.43;;;20.50;99.90;;;;;;5071078;28;20033;-67
2023/06/14 04:01:08;;;;;;;19.38;9.98;;;20.40;99.90;;;;;;5070838;28;20497;-66
2023/06/14 04:03:34;;;;;;;23.17;10.27;;;20.40;99.90;;;;;;5070142;28;20024;-66
2023/06/14 04:06:00;;;;;;;21.13;10.20;;;20.40;99.90;;;;;;5070777;28;20086;-67
2023/06/14 04:08:26;;;;;;;23.33;10.48;;;20.40;99.90;;;;;;5070658;28;20460;-66
2023/06/14 04:10:51;;;;;;;23.27;10.55;;;20.40;99.90;;;;;;5071383;28;20048;-66
2023/06/14 04:13:17;;;;;;;24.40;10.30;;;20.40;99.90;;;;;;5070442;28;20409;-67
2023/06/14 04:15:45;;;;;;;26.90;10.77;;;20.40;99.90;;;;;;5071213;28;20047;-66
2023/06/14 04:18:11;;;;;;;26.30;11.38;;;20.40;99.90;;;;;;5070405;28;20392;-66
2023/06/14 04:20:37;;;;;;;28.42;11.77;;;20.40;99.90;;;;;;5071034;28;20107;-66
2023/06/14 04:23:17;;;;;;;21.05;11.18;;;20.50;99.90;;;;;;5070723;28;20100;-66
2023/06/14 04:25:45;;;;;;;28.50;12.35;;;20.60;99.90;;;;;;5070552;28;20057;-66
2023/06/14 04:28:11;;;;;;;22.10;11.00;;;20.70;99.90;;;;;;5071197;28;20716;-66
2023/06/14 04:30:38;;;;;;;27.65;12.85;;;20.80;99.90;;;;;;5070155;28;20028;-67
2023/06/14 04:33:05;;;;;;;25.27;12.10;;;20.90;99.90;;;;;;5070621;28;20037;-66
2023/06/14 04:35:32;;;;;;;26.73;11.77;;;20.90;99.90;;;;;;5070755;28;20020;-66
2023/06/14 04:37:59;;;;;;;27.00;12.52;;;20.90;99.90;;;;;;5070975;28;20047;-66
2023/06/14 04:40:24;;;;;;;24.33;11.88;;;20.90;99.90;;;;;;5070578;28;20036;-66
2023/06/14 04:42:50;;;;;;;30.17;12.07;;;21.00;99.90;;;;;;5070490;28;20481;-66
2023/06/14 04:45:16;;;;;;;24.42;12.23;;;20.90;99.90;;;;;;5070154;28;20035;-66
2023/06/14 04:47:43;;;;;;;26.60;12.07;;;20.90;99.90;;;;;;5070754;28;20037;-66
2023/06/14 04:50:10;;;;;;;28.42;12.82;;;21.00;99.90;;;;;;5070700;28;20028;-66
2023/06/14 04:52:37;;;;;;;28.38;13.05;;;21.00;99.90;;;;;;5070646;28;20032;-66
2023/06/14 04:55:03;;;;;;;27.95;12.77;;;21.00;99.90;;;;;;5070774;28;20033;-66
2023/06/14 04:57:29;;;;;;;26.52;12.63;;;20.90;99.90;;;;;;5070422;28;20131;-66
2023/06/14 04:59:55;;;;;;;27.77;13.20;;;20.90;99.90;;;;;;5069921;28;20512;-66
2023/06/14 05:02:24;;;;;;;29.73;14.02;;;20.80;99.90;;;;;;5072243;28;20480;-66
2023/06/14 05:04:50;;;;;;;25.42;14.23;;;20.70;99.90;;;;;;5073992;28;20024;-66
2023/06/14 05:07:16;;;;;;;28.65;13.85;;;20.70;99.90;;;;;;5073714;28;20489;-67
2023/06/14 05:09:42;;;;;;;27.67;14.10;;;20.70;99.90;;;;;;5074283;28;20024;-66
2023/06/14 05:12:08;;;;;;;31.35;14.82;;;20.60;99.90;;;;;;5073900;28;20041;-66
2023/06/14 05:14:34;;;;;;;25.13;14.00;;;20.60;99.90;;;;;;5073635;28;20484;-66
2023/06/14 05:17:00;;;;;;;28.25;14.30;;;20.60;99.90;;;;;;5072656;28;20029;-66
2023/06/14 05:19:26;;;;;;;25.30;13.95;;;20.60;99.90;;;;;;5074159;28;20396;-67
2023/06/14 05:21:53;;;;;;;26.85;13.50;;;20.60;99.90;;;;;;5073890;28;20063;-67
2023/06/14 05:24:19;;;;;;;28.00;13.90;;;20.60;99.90;;;;;;5073334;28;20052;-67
2023/06/14 05:26:45;;;;;;;27.77;13.68;;;20.60;99.90;;;;;;5073227;28;20036;-67
2023/06/14 05:29:11;;;;;;;27.98;14.82;;;20.60;99.90;;;;;;5073208;28;20024;-67
2023/06/14 05:31:37;;;;;;;25.02;13.80;;;20.60;99.90;;;;;;5073547;28;20517;-67
2023/06/14 05:34:03;;;;;;;28.23;14.02;;;20.60;99.90;;;;;;5073284;28;20507;-67
2023/06/14 05:36:29;;;;;;;25.02;13.95;;;20.60;99.90;;;;;;5073197;28;20397;-67
2023/06/14 05:38:59;;;;;;;28.55;14.38;;;20.60;99.90;;;;;;5073791;28;20029;-67
2023/06/14 05:41:29;;;;;;;23.98;13.25;;;20.70;99.90;;;;;;5073231;28;20075;-67
2023/06/14 05:43:55;;;;;;;29.55;14.02;;;20.80;99.90;;;;;;5072813;28;20036;-67
2023/06/14 05:46:24;;;;;;;25.42;13.25;;;20.90;99.90;;;;;;5073101;28;20065;-67
2023/06/14 05:48:51;;;;;;;27.48;13.50;;;20.90;99.90;;;;;;5073193;28;20115;-67
2023/06/14 05:51:19;;;;;;;27.63;13.45;;;21.00;99.90;;;;;;5073164;28;20028;-67
2023/06/14 05:53:48;;;;;;;21.83;13.27;;;21.00;99.90;;;;;;5072542;28;20047;-66
2023/06/14 05:56:14;;;;;;;24.80;13.07;;;21.10;99.90;;;;;;5073322;28;20028;-67
2023/06/14 05:58:40;;;;;;;29.10;13.30;;;21.00;99.90;;;;;;5072594;28;20028;-66
2023/06/14 06:01:05;;;;;;;25.05;12.85;;;21.10;99.90;;;;;;5072580;28;20036;-67
2023/06/14 06:03:32;;;;;;;28.63;13.35;;;21.10;99.90;;;;;;5072447;28;20073;-66
2023/06/14 06:05:58;;;;;;;25.40;12.90;;;21.10;99.90;;;;;;5072977;28;20059;-67
2023/06/14 06:08:24;;;;;;;27.30;12.88;;;21.10;99.90;;;;;;5073071;28;20029;-67
2023/06/14 06:10:50;;;;;;;26.30;13.57;;;21.20;99.90;;;;;;5073115;28;20028;-68
2023/06/14 06:13:16;;;;;;;24.27;13.48;;;21.10;99.90;;;;;;5071951;28;20024;-68
2023/06/14 06:15:41;;;;;;;20.20;12.85;;;21.10;99.90;;;;;;5072806;28;20029;-68
2023/06/14 06:18:07;;;;;;;24.88;13.55;;;21.00;99.90;;;;;;5072634;28;20028;-69
2023/06/14 06:20:32;;;;;;;23.35;12.77;;;21.00;99.90;;;;;;5072994;28;20052;-68
2023/06/14 06:22:59;;;;;;;28.50;13.32;;;21.00;99.90;;;;;;5072547;28;20019;-67
2023/06/14 06:25:28;;;;;;;27.45;13.15;;;21.00;99.90;;;;;;5072805;28;20424;-65
2023/06/14 06:27:55;;;;;;;31.02;13.75;;;21.00;99.90;;;;;;5072585;28;20029;-68
2023/06/14 06:30:21;;;;;;;30.10;14.10;;;21.00;99.90;;;;;;5072271;28;20024;-68
2023/06/14 06:32:47;;;;;;;26.58;13.70;;;21.00;99.90;;;;;;5072381;28;20033;-67
2023/06/14 06:35:13;;;;;;;25.13;13.77;;;20.90;99.90;;;;;;5072156;28;20021;-68
2023/06/14 06:37:40;;;;;;;24.80;13.63;;;20.90;99.90;;;;;;5072197;28;20036;-68
2023/06/14 06:40:07;;;;;;;21.48;13.95;;;21.00;99.90;;;;;;5072145;28;20553;-68
2023/06/14 06:42:33;;;;;;;25.85;13.52;;;21.00;99.90;;;;;;5072186;28;20059;-71
2023/06/14 06:44:59;;;;;;;25.13;13.40;;;21.00;99.90;;;;;;5071076;28;20056;-70
2023/06/14 06:47:25;;;;;;;24.15;13.93;;;21.00;99.90;;;;;;5071726;28;20047;-71
2023/06/14 06:49:50;;;;;;;21.73;14.18;;;21.00;99.90;;;;;;5071673;28;20498;-71
2023/06/14 06:52:16;;;;;;;23.67;12.90;;;21.00;99.90;;;;;;5071524;28;20497;-70
2023/06/14 06:54:42;;;;;;;24.35;12.98;;;21.10;99.90;;;;;;5071808;28;20021;-70
2023/06/14 06:57:08;;;;;;;23.45;13.05;;;21.20;99.90;;;;;;5071289;28;20508;-71
2023/06/14 06:59:34;;;;;;;24.20;11.95;;;21.40;99.90;;;;;;5071757;28;20028;-70
2023/06/14 07:02:00;;;;;;;20.17;11.95;;;21.50;99.90;;;;;;5071734;28;20032;-70
2023/06/14 07:04:26;;;;;;;22.63;12.65;;;21.60;99.90;;;;;;5071962;28;20025;-70
2023/06/14 07:06:51;;;;;;;26.75;12.77;;;21.60;99.90;;;;;;5071612;28;20035;-70
2023/06/14 07:09:19;;;;;;;23.80;12.13;;;21.70;99.90;;;;;;5071852;28;20388;-70
2023/06/14 07:11:45;;;;;;;24.05;12.15;;;21.80;99.90;;;;;;5071113;28;20020;-70
2023/06/14 07:14:11;;;;;;;25.88;12.32;;;21.80;99.90;;;;;;5071665;28;20082;-70
2023/06/14 07:16:37;;;;;;;20.88;11.90;;;21.90;99.90;;;;;;5071467;28;20024;-71
2023/06/14 07:19:04;;;;;;;21.17;12.43;;;21.80;99.90;;;;;;5071046;28;20031;-70
2023/06/14 07:21:29;;;;;;;20.92;12.77;;;21.80;99.90;;;;;;5071956;28;20113;-70
2023/06/14 07:23:55;;;;;;;24.90;12.38;;;21.90;99.90;;;;;;5070584;28;20569;-71
2023/06/14 07:26:22;;;;;;;23.23;12.57;;;21.90;99.90;;;;;;5070899;28;20059;-71
2023/06/14 07:28:48;;;;;;;19.27;12.10;;;21.80;99.90;;;;;;5071473;28;20550;-71
2023/06/14 07:31:15;;;;;;;21.75;12.88;;;21.80;99.90;;;;;;5071925;28;20032;-70
2023/06/14 07:33:41;;;;;;;22.15;11.90;;;21.80;99.90;;;;;;5071272;28;20042;-71
2023/06/14 07:36:07;;;;;;;25.80;13.20;;;21.80;99.90;;;;;;5070545;28;20362;-69
2023/06/14 07:38:33;;;;;;;20.23;12.32;;;21.80;99.90;;;;;;5070616;28;20028;-72
2023/06/14 07:40:59;;;;;;;21.17;12.07;;;;;;;;;;5070638;28;20028;-71
2023/06/14 07:43:25;;;;;;;18.95;12.00;;;21.80;99.90;;;;;;5071385;28;20039;-70
2023/06/14 07:45:51;;;;;;;20.40;12.95;;;21.90;99.90;;;;;;5070630;28;20111;-69
2023/06/14 07:48:16;;;;;;;19.02;12.65;;;21.80;99.90;;;;;;5070861;28;20036;-71
2023/06/14 07:50:42;;;;;;;27.92;13.40;;;22.00;99.90;;;;;;5071349;28;20021;-70
2023/06/14 07:53:08;;;;;;;32.10;12.45;;;22.30;99.90;;;;;;5070601;28;20035;-67
2023/06/14 07:55:36;;;;;;;48.45;14.18;;;22.30;99.90;;;;;;5070629;28;20024;-63
2023/06/14 07:58:03;;;;;;;20.88;12.20;;;22.20;99.90;;;;;;5071095;28;20412;-63
2023/06/14 08:00:28;;;;;;;17.80;11.93;;;22.10;99.90;;;;;;5070533;28;20488;-63
2023/06/14 08:02:58;;;;;;;22.60;12.70;;;22.00;99.90;;;;;;5070807;28;20158;-62
2023/06/14 08:05:25;;;;;;;20.17;12.13;;;22.00;99.90;;;;;;5070409;28;20154;-62
2023/06/14 08:07:51;;;;;;;18.85;12.15;;;21.90;99.90;;;;;;5070915;28;20052;-63
2023/06/14 08:10:17;;;;;;;22.83;12.27;;;21.90;99.90;;;;;;5070428;28;20021;-63
2023/06/14 08:12:43;;;;;;;21.50;13.27;;;22.10;99.90;;;;;;5070686;28;20024;-62
2023/06/14 08:15:09;;;;;;;20.13;12.65;;;22.20;99.90;;;;;;5071442;28;20021;-63
2023/06/14 08:17:35;;;;;;;18.95;13.23;;;22.40;99.90;;;;;;5070651;28;20094;-62
2023/06/14 08:20:00;;;;;;;20.65;12.88;;;22.40;99.90;;;;;;5070464;28;20393;-63
2023/06/14 08:22:28;;;;;;;18.05;12.63;;;22.40;99.90;;;;;;5070363;28;20032;-62
2023/06/14 08:24:54;;;;;;;20.40;13.15;;;22.40;99.90;;;;;;5070260;28;20048;-63
2023/06/14 08:27:20;;;;;;;16.55;11.90;;;22.30;99.90;;;;;;5071045;28;20114;-62
2023/06/14 08:29:46;;;;;;;16.90;11.80;;;22.50;99.90;;;;;;5070607;28;20021;-62
2023/06/14 08:32:12;;;;;;;14.95;11.40;;;22.60;99.90;;;;;;5070443;28;20033;-63
2023/06/14 08:34:38;;;;;;;18.00;12.20;;;22.60;99.90;;;;;;5070409;28;20104;-63
2023/06/14 08:37:05;;;;;;;17.15;11.57;;;22.60;99.90;;;;;;5073038;28;20033;-64
2023/06/14 08:39:31;;;;;;;17.65;11.93;;;22.60;99.90;;;;;;5074183;28;20012;-63
2023/06/14 08:41:58;;;;;;;17.40;12.00;;;22.60;99.90;;;;;;5074002;28;20052;-64
2023/06/14 08:44:24;;;;;;;16.70;11.70;;;22.50;99.90;;;;;;5074283;28;20024;-63
2023/06/14 08:46:51;;;;;;;15.98;12.30;;;22.40;99.90;;;;;;5074397;28;20036;-63
2023/06/14 08:49:17;;;;;;;17.30;13.00;;;22.30;99.90;;;;;;5074151;28;20044;-63
2023/06/14 08:51:43;;;;;;;20.00;12.95;;;22.20;99.90;;;;;;5074172;28;20503;-63
2023/06/14 08:54:11;;;;;;;15.60;12.43;;;22.20;99.90;;;;;;5074328;28;20028;-64
2023/06/14 08:56:38;;;;;;;18.17;12.88;;;22.20;99.90;;;;;;5074159;28;20039;-64
2023/06/14 08:59:06;;;;;;;16.33;13.27;;;22.20;99.90;;;;;;5072744;28;20448;-63
2023/06/14 09:01:36;;;;;;;17.13;12.82;;;22.30;99.90;;;;;;5073936;28;20025;-63
2023/06/14 09:04:05;;;;;;;16.48;12.50;;;22.30;99.90;;;;;;5074435;28;20130;-64
2023/06/14 09:06:31;;;;;;;17.48;12.65;;;22.20;99.90;;;;;;5073793;28;20115;-63
2023/06/14 09:08:57;;;;;;;14.73;11.82;;;22.20;99.90;;;;;;5073800;28;20485;-63
2023/06/14 09:11:23;;;;;;;18.70;12.50;;;22.30;99.90;;;;;;5074000;28;20028;-63
2023/06/14 09:13:49;;;;;;;16.92;12.98;;;22.30;99.90;;;;;;5074310;28;20470;-63
2023/06/14 09:16:16;;;;;;;15.75;12.25;;;22.40;99.90;;;;;;5073901;28;20400;-64
2023/06/14 09:18:49;;;;;;;15.60;13.43;;;22.50;99.90;;;;;;5073680;28;20024;-63
2023/06/14 09:21:16;;;;;;;;;;;22.50;99.90;;;;;;5073725;28;20025;-63
2023/06/14 09:23:43;;;;;;;16.20;12.48;;;22.40;99.90;;;;;;5073557;28;20018;-63
2023/06/14 09:26:11;;;;;;;17.73;12.80;;;22.60;99.90;;;;;;5073775;28;20146;-63
2023/06/14 09:28:41;;;;;;;19.63;12.45;;;22.80;99.90;;;;;;5073529;28;20036;-63
2023/06/14 09:31:08;;;;;;;16.25;12.00;;;22.80;99.90;;;;;;5073578;28;20021;-63
2023/06/14 09:33:34;;;;;;;20.90;14.38;;;22.90;99.90;;;;;;5073396;28;20028;-63
2023/06/14 09:36:00;;;;;;;21.75;15.75;;;23.10;99.90;;;;;;5073177;28;20021;-63
2023/06/14 09:38:26;;;;;;;22.45;13.93;;;23.00;99.90;;;;;;5073549;28;20028;-64
2023/06/14 09:40:52;;;;;;;20.83;12.80;;;22.90;99.90;;;;;;5073509;28;20031;-63
2023/06/14 09:43:19;;;;;;;17.23;13.05;;;22.90;99.90;;;;;;5073296;28;20029;-63
2023/06/14 09:45:48;;;;;;;14.55;12.30;;;22.80;99.90;;;;;;5073283;28;20397;-63
2023/06/14 09:48:17;;;;;;;15.43;11.68;;;23.00;99.90;;;;;;5072039;28;20044;-63
2023/06/14 09:50:46;;;;;;;16.00;12.55;;;23.10;99.90;;;;;;5072095;28;20024;-63
2023/06/14 09:53:13;;;;;;;15.82;12.48;;;23.10;99.90;;;;;;5072847;28;20111;-63
2023/06/14 09:55:41;;;;;;;19.42;12.95;;;23.00;99.90;;;;;;5072497;28;20013;-64
2023/06/14 09:58:09;;;;;;;17.38;12.13;;;23.00;99.90;;;;;;5072402;28;20416;-64
2023/06/14 10:00:36;;;;;;;15.98;12.63;;;22.90;99.90;;;;;;5072006;28;20059;-63
2023/06/14 10:03:28;;;;;;;15.80;11.88;;;22.90;99.90;;;;;;5072022;28;20400;-64
2023/06/14 10:06:01;;;;;;;17.52;12.05;;;23.00;99.90;;;;;;5071404;28;20039;-64
2023/06/14 10:08:30;;;;;;;16.27;12.10;;;22.90;99.90;;;;;;5071679;28;20056;-63
2023/06/14 10:10:56;;;;;;;15.52;12.25;;;22.90;99.90;;;;;;5071967;28;20039;-64
2023/06/14 10:13:22;;;;;;;13.48;11.15;;;23.00;99.90;;;;;;5071818;28;20024;-64
2023/06/14 10:16:00;;;;;;;14.52;12.18;;;23.20;99.90;;;;;;5071688;28;20549;-64
2023/06/14 10:18:44;;;;;;;16.08;11.68;;;23.00;99.90;;;;;;5071522;28;20024;-63
2023/06/14 10:21:31;;;;;;;15.93;12.10;;;23.20;99.90;;;;;;5070873;28;20110;-63
2023/06/14 10:24:03;;;;;;;15.98;11.70;;;23.20;99.90;;;;;;5071877;28;20049;-63
2023/06/14 10:26:29;;;;;;;14.02;11.68;;;23.10;99.90;;;;;;5072056;28;20039;-63
2023/06/14 10:29:15;;;;;;;13.50;11.90;;;23.00;99.90;;;;;;5072458;28;20028;-63
2023/06/14 10:31:49;;;;;;;14.90;11.60;;;23.00;99.90;;;;;;5072070;28;20435;-64
2023/06/14 10:34:23;;;;;;;16.05;11.55;;;23.10;99.90;;;;;;5072039;28;20056;-64
2023/06/14 10:37:02;;;;;;;16.88;11.70;;;23.20;99.90;;;;;;5072101;28;20059;-63
2023/06/14 10:39:29;;;;;;;14.05;11.75;;;23.10;99.90;;;;;;5072160;28;20051;-63
2023/06/14 10:41:56;;;;;;;17.77;11.88;;;23.30;99.90;;;;;;5072448;28;20554;-64
2023/06/14 10:44:22;;;;;;;16.60;11.65;;;23.40;99.90;;;;;;5072155;28;20032;-64
2023/06/14 10:46:54;;;;;;;12.50;11.20;;;23.40;99.90;;;;;;5071999;28;20043;-63
2023/06/14 10:49:41;;;;;;;13.57;10.73;;;23.60;99.90;;;;;;5071720;28;20086;-64
2023/06/14 10:52:18;;;;;;;15.00;11.27;;;23.80;99.90;;;;;;5072059;28;20459;-64
2023/06/14 10:55:22;;;;;;;14.55;11.25;;;23.80;99.90;;;;;;5070589;28;20439;-64
2023/06/14 10:57:55;;;;;;;16.23;10.95;;;23.70;99.90;;;;;;5071795;28;20020;-64
2023/06/14 11:00:26;;;;;;;15.32;11.10;;;23.50;99.90;;;;;;5072121;28;20082;-64
2023/06/14 11:03:04;;;;;;;16.15;11.85;;;23.80;99.90;;;;;;5071414;28;20038;-64
2023/06/14 11:05:35;;;;;;;15.20;11.85;;;23.60;99.90;;;;;;5071818;28;20032;-64
2023/06/14 11:08:06;;;;;;;13.82;11.30;;;23.60;99.90;;;;;;5071604;28;20123;-65
2023/06/14 11:10:39;;;;;;;14.02;11.35;;;23.50;99.90;;;;;;5072148;28;20099;-63
2023/06/14 11:13:09;;;;;;;15.75;11.52;;;23.50;99.90;;;;;;5071728;28;20052;-64
2023/06/14 11:15:36;;;;;;;14.70;11.20;;;23.70;99.90;;;;;;5071163;28;20415;-64
2023/06/14 11:18:06;;;;;;;18.35;12.48;;;23.60;99.90;;;;;;5071073;28;20425;-64
2023/06/14 11:20:33;;;;;;;15.88;11.40;;;23.30;99.90;;;;;;5071515;28;20541;-64
2023/06/14 11:22:59;;;;;;;16.92;12.63;;;23.50;99.90;;;;;;5071519;28;20033;-64
2023/06/14 11:25:27;;;;;;;15.48;11.68;;;23.50;99.90;;;;;;5071394;28;20052;-64
2023/06/14 11:27:55;;;;;;;16.25;12.15;;;23.50;99.90;;;;;;5071547;28;20420;-65
2023/06/14 11:30:21;;;;;;;12.85;11.38;;;23.60;99.90;;;;;;5071470;28;20052;-65
2023/06/14 11:32:52;;;;;;;15.95;11.68;;;23.40;99.90;;;;;;5071254;28;20036;-64
2023/06/14 11:35:18;;;;;;;14.63;11.88;;;23.40;99.90;;;;;;5071404;28;20067;-64
2023/06/14 11:37:45;;;;;;;19.25;11.95;;;23.40;99.90;;;;;;5071163;28;20097;-64
2023/06/14 11:40:12;;;;;;;15.98;11.85;;;23.40;99.90;;;;;;5071385;28;20493;-64
2023/06/14 11:42:39;;;;;;;20.08;11.27;;;23.30;99.90;;;;;;5071328;28;20021;-65
2023/06/14 11:45:10;;;;;;;15.25;11.50;;;23.40;99.90;;;;;;5071445;28;20099;-64
2023/06/14 11:47:36;;;;;;;12.70;10.98;;;23.60;99.90;;;;;;5070764;28;20039;-64
2023/06/14 11:50:04;;;;;;;14.68;11.02;;;23.70;99.90;;;;;;5071168;28;20473;-63
2023/06/14 11:52:31;;;;;;;16.58;10.73;;;23.70;99.90;;;;;;5071753;28;20024;-64
2023/06/14 11:54:57;;;;;;;13.40;10.80;;;23.80;99.90;;;;;;5071028;28;20070;-64
2023/06/14 11:57:23;;;;;;;14.63;10.75;;;24.00;99.90;;;;;;5070851;28;20032;-65
2023/06/14 11:59:49;;;;;;;15.35;11.15;;;24.00;99.90;;;;;;5071259;28;20029;-63
2023/06/14 12:02:19;;;;;;;12.38;10.75;;;24.10;99.90;;;;;;5070943;28;20116;-64
2023/06/14 12:04:48;;;;;;;14.45;10.82;;;24.20;99.90;;;;;;5071221;28;20047;-64
2023/06/14 12:07:15;;;;;;;13.18;10.80;;;24.10;99.90;;;;;;5070379;28;20041;-64
2023/06/14 12:10:07;;;;;;;15.27;11.35;;;24.20;99.90;;;;;;5070788;28;20058;-63
2023/06/14 12:12:37;;;;;;;14.98;10.75;;;24.20;99.90;;;;;;5072615;28;20068;-64
2023/06/14 12:15:12;;;;;;;15.93;11.23;;;24.40;99.90;;;;;;5074766;28;20489;-64
2023/06/14 12:17:41;;;;;;;13.93;10.95;;;24.30;99.90;;;;;;5074547;28;20496;-64
2023/06/14 12:20:13;;;;;;;12.90;10.60;;;24.40;99.90;;;;;;5075219;28;20443;-63
2023/06/14 12:23:00;;;;;;;15.13;10.25;;;24.40;99.90;;;;;;5074939;28;20021;-64
2023/06/14 12:25:34;;;;;;;15.55;10.27;;;24.20;99.90;;;;;;5074654;28;20048;-64
2023/06/14 12:28:07;;;;;;;16.45;10.38;;;24.40;99.90;;;;;;5074697;28;20048;-64
2023/06/14 12:30:35;;;;;;;12.45;9.75;;;24.40;99.90;;;;;;5074486;28;20549;-63
2023/06/14 12:33:02;;;;;;;13.25;10.25;;;24.50;99.90;;;;;;5074575;28;20127;-64